International Virtual Aviation Organisation

Eastern Europe and Northern Asia MCD

 
URWW 121300Z 12009MPS CAVOK 23/02 Q1023 WS R06 R06/010070 NOSIG
QNH:(hPa/inHg/mmHg)1023 / 30.21 / 767
QFE:(hPa/inHg/mmHg)1005 / 29.68 / 754
Temperature23
Dew Point2
Visibility> 10000
WeatherCAVOK
Cloud Cover
Transition Height700 m./2800 ft.
Transition LevelFL40
SQUAWK